Time;durP1;ratioP1;P1;durP2;ratioP2;P2;SDS_P1;SDS_P2;PMS_P1;PMS_P2;Temp;Humidity;BMP_temperature;BMP_pressure;BME280_temperature;BME280_humidity;BME280_pressure;Samples;Min_cycle;Max_cycle;Signal;HPM_P1;HPM_P2
2021/07/21 00:01:26;;;;;;;8.00;4.88;;;;;;;;;;5096191;28;20016;-58
2021/07/21 00:03:52;;;;;;;7.43;4.63;;;;;;;;;;5095587;28;20115;-59
2021/07/21 00:06:18;;;;;;;6.78;5.63;;;;;;;;;;5095309;28;20056;-59
2021/07/21 00:08:44;;;;;;;9.30;5.45;;;;;;;;;;5094926;28;20012;-59
2021/07/21 00:13:57;;;;;;;7.40;4.65;;;;;;;;;;5095308;28;20085;-59
2021/07/21 00:16:32;;;;;;;10.02;5.53;;;;;;;;;;5095077;28;20024;-59
2021/07/21 00:19:05;;;;;;;7.88;4.82;;;;;;;;;;5093391;28;20024;-59
2021/07/21 00:21:30;;;;;;;7.45;5.05;;;;;;;;;;5095285;28;20024;-58
2021/07/21 00:23:57;;;;;;;7.00;5.22;;;;;;;;;;5093593;28;20024;-58
2021/07/21 00:26:23;;;;;;;7.95;5.18;;;;;;;;;;5094912;28;20031;-59
2021/07/21 00:28:49;;;;;;;6.70;5.28;;;;;;;;;;5094871;28;20028;-59
2021/07/21 00:31:16;;;;;;;5.47;4.53;;;;;;;;;;5094862;28;20024;-58
2021/07/21 00:33:42;;;;;;;8.10;5.28;;;;;;;;;;5094980;28;20372;-59
2021/07/21 00:36:08;;;;;;;8.18;5.55;;;;;;;;;;5094788;28;20036;-59
2021/07/21 00:38:34;;;;;;;6.43;4.82;;;;;;;;;;5093371;28;20028;-58
2021/07/21 00:41:00;;;;;;;5.65;4.85;;;;;;;;;;5095057;28;20032;-59
2021/07/21 00:43:28;;;;;;;7.25;5.03;;;;;;;;;;5094987;28;20158;-59
2021/07/21 00:45:54;;;;;;;10.30;5.18;;;;;;;;;;5093203;28;20111;-59
2021/07/21 00:48:20;;;;;;;7.40;5.10;;;;;;;;;;5094405;28;20457;-58
2021/07/21 00:50:46;;;;;;;8.57;5.30;;;;;;;;;;5094412;28;20027;-59
2021/07/21 00:53:12;;;;;;;7.50;5.28;;;;;;;;;;5094359;28;20024;-58
2021/07/21 00:55:38;;;;;;;6.65;5.57;;;;;;;;;;5094288;28;20095;-58
2021/07/21 00:58:04;;;;;;;8.13;4.40;;;;;;;;;;5094274;28;20027;-59
2021/07/21 01:00:30;;;;;;;7.65;5.10;;;;;;;;;;5092772;28;20035;-58
2021/07/21 01:02:56;;;;;;;7.40;5.13;;;;;;;;;;5094740;28;20020;-58
2021/07/21 01:05:27;;;;;;;6.55;4.95;;;;;;;;;;5094208;28;20028;-58
2021/07/21 01:07:53;;;;;;;9.23;6.32;;;;;;;;;;5093984;28;20059;-58
2021/07/21 01:10:21;;;;;;;9.00;6.47;;;;;;;;;;5093392;28;20074;-58
2021/07/21 01:12:59;;;;;;;11.02;5.32;;;;;;;;;;5094020;28;20028;-59
2021/07/21 01:15:28;;;;;;;6.28;4.80;;;;;;;;;;5094320;28;20016;-59
2021/07/21 01:18:11;;;;;;;9.88;6.13;;;;;;;;;;5093878;28;20102;-59
2021/07/21 01:20:46;;;;;;;6.82;4.97;;;;;;;;;;5094037;28;20381;-58
2021/07/21 01:23:30;;;;;;;7.22;4.65;;;;;;;;;;5094393;28;20020;-58
2021/07/21 01:26:08;;;;;;;10.13;5.20;;;;;;;;;;5094310;28;20047;-58
2021/07/21 01:28:34;;;;;;;6.28;5.68;;;;;;;;;;5092255;28;20016;-59
2021/07/21 01:31:02;;;;;;;12.52;6.28;;;;;;;;;;5092822;28;20024;-58
2021/07/21 01:33:29;;;;;;;8.07;6.13;;;;;;;;;;5094289;28;20392;-59
2021/07/21 01:35:58;;;;;;;6.30;5.28;;;;;;;;;;5094351;28;20020;-58
2021/07/21 01:38:29;;;;;;;8.57;4.88;;;;;;;;;;5092975;28;20027;-58
2021/07/21 01:40:55;;;;;;;;;;;;;;;;;;5094993;28;20032;-58
2021/07/21 01:43:28;;;;;;;6.63;5.55;;;;;;;;;;5094243;28;19904;-58
2021/07/21 01:45:54;;;;;;;6.13;4.82;;;;;;;;;;5093923;28;20024;-58
2021/07/21 01:48:23;;;;;;;8.65;5.60;;;;;;;;;;5093519;28;20028;-58
2021/07/21 01:50:49;;;;;;;8.60;5.57;;;;;;;;;;5092179;28;20031;-58
2021/07/21 01:53:16;;;;;;;6.32;4.88;;;;;;;;;;5094019;28;20032;-58
2021/07/21 01:55:42;;;;;;;10.32;6.10;;;;;;;;;;5093713;28;20201;-58
2021/07/21 01:58:09;;;;;;;7.13;5.60;;;;;;;;;;5093409;28;20028;-58
2021/07/21 02:00:37;;;;;;;8.68;6.30;;;;;;;;;;5093110;28;20535;-58
2021/07/21 02:03:07;;;;;;;8.30;5.68;;;;;;;;;;5093918;28;20032;-58
2021/07/21 02:05:33;;;;;;;6.10;4.97;;;;;;;;;;5093614;28;20024;-58
2021/07/21 02:08:01;;;;;;;9.05;6.20;;;;;;;;;;5093939;28;20038;-58
2021/07/21 02:10:28;;;;;;;6.70;4.72;;;;;;;;;;5092865;28;20016;-59
2021/07/21 02:12:56;;;;;;;9.25;5.80;;;;;;;;;;5093380;28;20036;-58
2021/07/21 02:15:23;;;;;;;7.35;5.53;;;;;;;;;;5093106;28;20450;-58
2021/07/21 02:17:50;;;;;;;9.75;6.78;;;;;;;;;;5093138;28;20052;-59
2021/07/21 02:20:16;;;;;;;8.38;5.88;;;;;;;;;;5091863;28;20077;-58
2021/07/21 02:22:43;;;;;;;8.00;6.00;;;;;;;;;;5093281;28;20024;-58
2021/07/21 02:25:10;;;;;;;9.48;6.45;;;;;;;;;;5093690;28;20430;-58
2021/07/21 02:27:36;;;;;;;10.55;6.82;;;;;;;;;;5093193;28;20069;-58
2021/07/21 02:30:07;;;;;;;6.32;5.40;;;;;;;;;;5093032;28;20020;-58
2021/07/21 02:32:36;;;;;;;7.68;5.88;;;;;;;;;;5092326;28;20034;-58
2021/07/21 02:35:02;;;;;;;6.70;5.78;;;;;;;;;;5093215;28;20043;-58
2021/07/21 02:37:28;;;;;;;10.05;6.15;;;;;;;;;;5092635;28;20020;-58
2021/07/21 02:39:55;;;;;;;8.60;6.32;;;;;;;;;;5093348;28;20024;-58
2021/07/21 02:42:21;;;;;;;10.45;5.55;;;;;;;;;;5096460;28;20063;-58
2021/07/21 02:44:48;;;;;;;10.40;7.28;;;;;;;;;;5096758;28;20051;-58
2021/07/21 02:47:15;;;;;;;9.77;6.13;;;;;;;;;;5096394;28;20028;-58
2021/07/21 02:49:42;;;;;;;7.15;5.95;;;;;;;;;;5096744;28;20020;-58
2021/07/21 02:52:12;;;;;;;7.75;6.38;;;;;;;;;;5096151;28;20024;-58
2021/07/21 02:54:43;;;;;;;8.65;5.85;;;;;;;;;;5096571;28;20028;-58
2021/07/21 02:57:13;;;;;;;7.45;5.97;;;;;;;;;;5096670;28;20020;-58
2021/07/21 02:59:44;;;;;;;7.38;5.38;;;;;;;;;;5096483;28;20055;-58
2021/07/21 03:02:11;;;;;;;7.35;5.70;;;;;;;;;;5096469;28;20462;-58
2021/07/21 03:04:38;;;;;;;8.07;5.63;;;;;;;;;;5096444;28;20027;-59
2021/07/21 03:07:05;;;;;;;7.85;6.32;;;;;;;;;;5096828;28;20020;-58
2021/07/21 03:09:31;;;;;;;12.85;5.88;;;;;;;;;;5096587;28;20042;-58
2021/07/21 03:11:59;;;;;;;7.65;5.55;;;;;;;;;;5095802;28;20040;-58
2021/07/21 03:14:25;;;;;;;9.05;6.65;;;;;;;;;;5094838;28;20062;-58
2021/07/21 03:16:52;;;;;;;7.60;6.13;;;;;;;;;;5094896;28;20028;-58
2021/07/21 03:19:21;;;;;;;8.43;5.82;;;;;;;;;;5096261;28;20530;-58
2021/07/21 03:21:47;;;;;;;9.73;6.80;;;;;;;;;;5096490;28;20107;-58
2021/07/21 03:24:13;;;;;;;8.63;6.47;;;;;;;;;;5095914;28;20024;-58
2021/07/21 03:26:40;;;;;;;6.93;5.85;;;;;;;;;;5095955;28;20034;-58
2021/07/21 03:29:06;;;;;;;7.85;6.18;;;;;;;;;;5095879;28;20020;-58
2021/07/21 03:31:33;;;;;;;9.77;6.65;;;;;;;;;;5095893;28;20024;-58
2021/07/21 03:34:10;;;;;;;11.50;6.82;;;;;;;;;;5096055;28;20043;-58
2021/07/21 03:36:37;;;;;;;8.80;5.38;;;;;;;;;;5095537;28;20481;-58
2021/07/21 03:39:04;;;;;;;9.40;7.00;;;;;;;;;;5095813;28;20027;-58
2021/07/21 03:41:32;;;;;;;10.98;7.13;;;;;;;;;;5096067;28;20036;-58
2021/07/21 03:43:58;;;;;;;8.80;6.53;;;;;;;;;;5095667;28;20032;-58
2021/07/21 03:46:24;;;;;;;11.27;7.32;;;;;;;;;;5095685;28;20077;-58
2021/07/21 03:48:51;;;;;;;10.27;6.57;;;;;;;;;;5095707;28;20112;-58
2021/07/21 03:51:17;;;;;;;7.40;6.43;;;;;;;;;;5095207;28;20024;-58
2021/07/21 03:53:43;;;;;;;8.02;6.78;;;;;;;;;;5093680;28;20213;-58
2021/07/21 03:56:09;;;;;;;8.85;6.78;;;;;;;;;;5095727;28;20032;-58
2021/07/21 03:58:35;;;;;;;8.60;6.43;;;;;;;;;;5096016;28;20103;-58
2021/07/21 04:01:02;;;;;;;9.63;6.68;;;;;;;;;;5095000;28;20059;-58
2021/07/21 04:03:29;;;;;;;9.98;7.38;;;;;;;;;;5095413;28;20028;-58
2021/07/21 04:05:56;;;;;;;8.80;6.97;;;;;;;;;;5095544;28;20434;-58
2021/07/21 04:08:23;;;;;;;8.07;6.72;;;;;;;;;;5095081;28;20112;-58
2021/07/21 04:10:52;;;;;;;10.38;6.90;;;;;;;;;;5095114;28;20047;-58
2021/07/21 04:13:19;;;;;;;8.23;6.05;;;;;;;;;;5095860;28;20398;-58
2021/07/21 04:15:46;;;;;;;10.27;6.90;;;;;;;;;;5095539;28;20028;-58
2021/07/21 04:18:13;;;;;;;11.60;7.22;;;;;;;;;;5094945;28;20034;-58
2021/07/21 04:20:40;;;;;;;8.07;6.63;;;;;;;;;;5095062;28;20461;-58
2021/07/21 04:23:06;;;;;;;6.45;5.80;;;;;;;;;;5095531;28;20365;-58
2021/07/21 04:25:33;;;;;;;10.50;8.00;;;;;;;;;;5093724;28;20028;-58
2021/07/21 04:27:59;;;;;;;11.23;7.32;;;;;;;;;;5095075;28;20113;-58
2021/07/21 04:30:28;;;;;;;9.88;6.45;;;;;;;;;;5094193;28;20158;-58
2021/07/21 04:32:55;;;;;;;9.07;7.03;;;;;;;;;;5094891;28;20115;-58
2021/07/21 04:35:21;;;;;;;8.90;7.43;;;;;;;;;;5093560;28;20128;-58
2021/07/21 04:37:47;;;;;;;9.32;6.60;;;;;;;;;;5093588;28;20031;-58
2021/07/21 04:40:14;;;;;;;8.93;6.82;;;;;;;;;;5094741;28;20028;-58
2021/07/21 04:42:41;;;;;;;11.82;8.02;;;;;;;;;;5093643;28;20416;-58
2021/07/21 04:45:07;;;;;;;8.32;6.88;;;;;;;;;;5094199;28;20050;-59
2021/07/21 04:47:36;;;;;;;8.95;7.18;;;;;;;;;;5093661;28;20081;-59
2021/07/21 04:50:04;;;;;;;8.82;7.22;;;;;;;;;;5095189;28;20039;-59
2021/07/21 04:52:30;;;;;;;12.30;9.18;;;;;;;;;;5093323;28;20457;-63
2021/07/21 04:54:59;;;;;;;10.73;6.90;;;;;;;;;;5094576;28;20116;-58
2021/07/21 04:57:25;;;;;;;9.02;6.80;;;;;;;;;;5094623;28;20099;-58
2021/07/21 04:59:51;;;;;;;8.90;6.97;;;;;;;;;;5093305;28;20066;-58
2021/07/21 05:02:17;;;;;;;10.30;7.57;;;;;;;;;;5094602;28;20024;-58
2021/07/21 05:04:44;;;;;;;8.82;7.30;;;;;;;;;;5093474;28;20028;-58
2021/07/21 05:07:10;;;;;;;10.73;7.32;;;;;;;;;;5094642;28;20028;-59
2021/07/21 05:09:36;;;;;;;8.70;7.68;;;;;;;;;;5094550;28;20074;-59
2021/07/21 05:12:02;;;;;;;11.80;7.35;;;;;;;;;;5094423;28;20048;-58
2021/07/21 05:14:28;;;;;;;7.85;7.05;;;;;;;;;;5094124;28;20078;-58
2021/07/21 05:16:54;;;;;;;10.60;7.20;;;;;;;;;;5092982;28;20055;-58
2021/07/21 05:19:20;;;;;;;11.73;7.90;;;;;;;;;;5094422;28;20040;-58
2021/07/21 05:21:52;;;;;;;7.50;6.78;;;;;;;;;;5094851;28;20365;-58
2021/07/21 05:24:18;;;;;;;10.45;7.07;;;;;;;;;;5094390;28;20378;-58
2021/07/21 05:26:47;;;;;;;11.88;8.23;;;;;;;;;;5094096;28;20032;-58
2021/07/21 05:29:13;;;;;;;8.68;7.32;;;;;;;;;;5094355;28;20024;-58
2021/07/21 05:31:40;;;;;;;9.98;6.85;;;;;;;;;;5094881;28;20020;-58
2021/07/21 05:34:06;;;;;;;8.68;7.18;;;;;;;;;;5093902;28;20046;-58
2021/07/21 05:36:35;;;;;;;11.23;6.60;;;;;;;;;;5093952;28;20024;-58
2021/07/21 05:39:04;;;;;;;10.70;8.53;;;;;;;;;;5093927;28;20031;-58
2021/07/21 05:41:30;;;;;;;12.10;8.60;;;;;;;;;;5094526;28;20028;-58
2021/07/21 05:43:59;;;;;;;10.25;7.50;;;;;;;;;;5093412;28;20531;-58
2021/07/21 05:46:25;;;;;;;8.82;7.47;;;;;;;;;;5092291;28;20032;-58
2021/07/21 05:48:51;;;;;;;13.75;7.75;;;;;;;;;;5093700;28;20028;-58
2021/07/21 05:51:17;;;;;;;10.45;7.75;;;;;;;;;;5094006;28;20073;-58
2021/07/21 05:53:43;;;;;;;11.02;7.88;;;;;;;;;;5093559;28;20028;-58
2021/07/21 05:56:15;;;;;;;8.63;7.30;;;;;;;;;;5093740;28;20027;-58
2021/07/21 05:58:41;;;;;;;10.57;7.70;;;;;;;;;;5093745;28;20020;-58
2021/07/21 06:01:10;;;;;;;10.40;8.38;;;;;;;;;;5093791;28;20024;-58
2021/07/21 06:03:36;;;;;;;10.25;7.40;;;;;;;;;;5092421;28;20024;-58
2021/07/21 06:06:02;;;;;;;10.70;8.93;;;;;;;;;;5093431;28;20039;-58
2021/07/21 06:08:27;;;;;;;9.07;7.75;;;;;;;;;;5093621;28;20373;-58
2021/07/21 06:10:53;;;;;;;10.23;7.50;;;;;;;;;;5093235;28;20127;-58
2021/07/21 06:13:21;;;;;;;9.00;7.28;;;;;;;;;;5093850;28;20040;-58
2021/07/21 06:15:47;;;;;;;15.40;7.30;;;;;;;;;;5093355;28;20030;-58
2021/07/21 06:18:13;;;;;;;9.77;7.72;;;;;;;;;;5097947;28;20024;-58
2021/07/21 06:20:39;;;;;;;8.25;7.45;;;;;;;;;;5097882;28;20030;-59
2021/07/21 06:23:05;;;;;;;8.50;7.55;;;;;;;;;;5096926;28;20055;-58
2021/07/21 06:25:32;;;;;;;11.82;7.90;;;;;;;;;;5097772;28;20025;-58
2021/07/21 06:27:58;;;;;;;10.75;8.35;;;;;;;;;;5096999;28;20068;-58
2021/07/21 06:30:24;;;;;;;9.90;8.25;;;;;;;;;;5096648;28;20024;-58
2021/07/21 06:32:50;;;;;;;9.25;7.63;;;;;;;;;;5098064;28;20032;-58
2021/07/21 06:35:16;;;;;;;10.05;7.85;;;;;;;;;;5095676;28;20031;-59
2021/07/21 06:37:42;;;;;;;9.85;8.30;;;;;;;;;;5097167;28;20065;-59
2021/07/21 06:40:08;;;;;;;15.68;8.20;;;;;;;;;;5097186;28;20024;-58
2021/07/21 06:42:34;;;;;;;10.73;7.85;;;;;;;;;;5097137;28;20020;-58
2021/07/21 06:45:00;;;;;;;10.48;7.88;;;;;;;;;;5078886;28;20070;-58
2021/07/21 06:47:26;;;;;;;12.50;8.70;;;;;;;;;;5097018;28;20024;-58
2021/07/21 06:49:52;;;;;;;9.52;7.63;;;;;;;;;;5097039;28;20377;-58
2021/07/21 06:52:21;;;;;;;10.55;8.27;;;;;;;;;;5097370;28;20024;-59
2021/07/21 06:54:47;;;;;;;12.05;6.47;;;;;;;;;;5097301;28;20063;-58
2021/07/21 06:57:13;;;;;;;9.05;6.90;;;;;;;;;;5097456;28;20078;-58
2021/07/21 06:59:39;;;;;;;13.38;7.55;;;;;;;;;;5095658;28;20016;-58
2021/07/21 07:02:05;;;;;;;12.43;7.15;;;;;;;;;;5096767;28;20473;-58
2021/07/21 07:04:39;;;;;;;11.52;6.72;;;;;;;;;;5096526;28;20498;-58
2021/07/21 07:07:05;;;;;;;9.13;8.15;;;;;;;;;;5097077;28;20031;-59
2021/07/21 07:09:31;;;;;;;9.35;7.00;;;;;;;;;;5096840;28;20028;-58
2021/07/21 07:11:57;;;;;;;11.02;7.55;;;;;;;;;;5095240;28;20059;-58
2021/07/21 07:14:23;;;;;;;10.15;7.43;;;;;;;;;;5096775;28;20024;-58
2021/07/21 07:16:49;;;;;;;9.57;7.85;;;;;;;;;;5096318;28;20020;-58
2021/07/21 07:19:15;;;;;;;9.63;7.15;;;;;;;;;;5096332;28;20051;-58
2021/07/21 07:21:41;;;;;;;9.88;6.47;;;;;;;;;;5097102;28;20361;-58
2021/07/21 07:24:07;;;;;;;10.77;8.13;;;;;;;;;;5096770;28;20036;-58
2021/07/21 07:26:35;;;;;;;10.65;8.43;;;;;;;;;;5096257;28;20126;-58
2021/07/21 07:29:04;;;;;;;9.00;7.25;;;;;;;;;;5094877;28;20089;-58
2021/07/21 07:31:30;;;;;;;9.40;8.43;;;;;;;;;;5096487;28;20028;-58
2021/07/21 07:33:56;;;;;;;11.02;8.35;;;;;;;;;;5095951;28;20036;-58
2021/07/21 07:36:24;;;;;;;10.10;7.60;;;;;;;;;;5096195;28;20115;-58
2021/07/21 07:38:50;;;;;;;9.38;7.60;;;;;;;;;;5096537;28;20024;-58
2021/07/21 07:41:17;;;;;;;10.68;8.40;;;;;;;;;;5096362;28;20020;-58
2021/07/21 07:43:45;;;;;;;8.80;7.72;;;;;;;;;;5095814;28;20470;-59
2021/07/21 07:46:11;;;;;;;10.63;7.55;;;;;;;;;;5095911;28;20117;-58
2021/07/21 07:48:42;;;;;;;11.45;8.15;;;;;;;;;;5096179;28;20060;-58
2021/07/21 07:51:08;;;;;;;12.20;7.75;;;;;;;;;;5095824;28;20020;-59
2021/07/21 07:53:34;;;;;;;9.13;7.68;;;;;;;;;;5094987;28;20037;-58
2021/07/21 07:56:00;;;;;;;10.57;6.88;;;;;;;;;;5096295;28;20024;-59
2021/07/21 07:58:26;;;;;;;12.82;7.68;;;;;;;;;;5096030;28;20103;-59
2021/07/21 08:00:55;;;;;;;9.10;7.85;;;;;;;;;;5095996;28;20483;-59
2021/07/21 08:03:21;;;;;;;8.55;7.03;;;;;;;;;;5096016;28;20027;-59
2021/07/21 08:05:49;;;;;;;12.57;8.50;;;;;;;;;;5095283;28;20527;-59
2021/07/21 08:08:15;;;;;;;8.80;7.22;;;;;;;;;;5096045;28;20365;-59
2021/07/21 08:10:41;;;;;;;11.30;7.70;;;;;;;;;;5095384;28;20047;-59
2021/07/21 08:13:07;;;;;;;11.50;6.95;;;;;;;;;;5096062;28;20115;-59
2021/07/21 08:15:33;;;;;;;8.50;7.63;;;;;;;;;;5095269;28;20031;-59
2021/07/21 08:18:00;;;;;;;9.80;8.00;;;;;;;;;;5095462;28;20027;-59
2021/07/21 08:20:26;;;;;;;10.88;7.22;;;;;;;;;;5095435;28;20035;-58
2021/07/21 08:22:52;;;;;;;10.23;8.23;;;;;;;;;;5094704;28;20366;-58
2021/07/21 08:25:24;;;;;;;10.00;8.00;;;;;;;;;;5094375;28;20016;-58
2021/07/21 08:27:50;;;;;;;12.50;7.28;;;;;;;;;;5095268;28;20024;-59
2021/07/21 08:30:16;;;;;;;9.57;8.02;;;;;;;;;;5094699;28;20442;-59
2021/07/21 08:32:43;;;;;;;12.70;8.52;;;;;;;;;;5095577;28;20026;-58
2021/07/21 08:35:13;;;;;;;9.60;7.15;;;;;;;;;;5095242;28;20032;-59
2021/07/21 08:37:40;;;;;;;12.07;7.70;;;;;;;;;;5095374;28;20418;-59
2021/07/21 08:40:09;;;;;;;9.70;7.65;;;;;;;;;;5094473;28;20054;-59
2021/07/21 08:42:35;;;;;;;9.70;7.53;;;;;;;;;;5094946;28;20085;-59
2021/07/21 08:45:01;;;;;;;10.50;7.60;;;;;;;;;;5095344;28;20051;-59
2021/07/21 08:47:27;;;;;;;7.95;6.35;;;;;;;;;;5095099;28;20133;-59
2021/07/21 08:49:53;;;;;;;12.75;7.60;;;;;;;;;;5094738;28;20044;-59
2021/07/21 08:52:21;;;;;;;12.70;7.47;;;;;;;;;;5094544;28;20028;-59
2021/07/21 08:54:48;;;;;;;9.10;7.07;;;;;;;;;;5094609;28;20046;-59
2021/07/21 08:57:15;;;;;;;10.55;7.00;;;;;;;;;;5094558;28;20024;-59
2021/07/21 08:59:45;;;;;;;10.85;7.43;;;;;;;;;;5094506;28;20489;-59
2021/07/21 09:02:11;;;;;;;9.55;6.80;;;;;;;;;;5094872;28;20126;-59
2021/07/21 09:04:38;;;;;;;7.47;6.60;;;;;;;;;;5094435;28;20458;-59
2021/07/21 09:07:04;;;;;;;9.27;7.05;;;;;;;;;;5093128;28;20097;-59
2021/07/21 09:09:30;;;;;;;11.38;7.03;;;;;;;;;;5094290;28;20107;-59
2021/07/21 09:11:59;;;;;;;11.68;7.22;;;;;;;;;;5093838;28;20485;-59
2021/07/21 09:14:25;;;;;;;9.25;6.63;;;;;;;;;;5093902;28;20070;-59
2021/07/21 09:17:10;;;;;;;8.93;7.82;;;;;;;;;;5093471;28;20020;-59
2021/07/21 09:19:37;;;;;;;8.38;7.43;;;;;;;;;;5092882;28;20119;-59
2021/07/21 09:22:12;;;;;;;7.45;6.72;;;;;;;;;;5094496;28;20523;-59
2021/07/21 09:24:38;;;;;;;8.40;7.40;;;;;;;;;;5095064;28;20034;-59
2021/07/21 09:27:04;;;;;;;11.00;6.20;;;;;;;;;;5094198;28;20028;-59
2021/07/21 09:29:30;;;;;;;8.35;7.07;;;;;;;;;;5094125;28;20027;-59
2021/07/21 09:31:59;;;;;;;9.05;6.53;;;;;;;;;;5094681;28;20024;-59
2021/07/21 09:34:26;;;;;;;8.73;6.15;;;;;;;;;;5093692;28;20410;-59
2021/07/21 09:37:14;;;;;;;8.43;6.75;;;;;;;;;;5094047;28;20125;-59
2021/07/21 09:39:41;;;;;;;9.38;5.43;;;;;;;;;;5093715;28;20028;-59
2021/07/21 09:42:08;;;;;;;10.77;7.45;;;;;;;;;;5093900;28;20027;-59
2021/07/21 09:44:41;;;;;;;8.93;7.20;;;;;;;;;;5094519;28;20035;-59
2021/07/21 09:47:14;;;;;;;11.32;6.93;;;;;;;;;;5093886;28;20016;-59
2021/07/21 09:49:40;;;;;;;11.55;7.00;;;;;;;;;;5093761;28;20032;-59
2021/07/21 09:52:18;;;;;;;7.63;6.00;;;;;;;;;;5093519;28;20031;-59
2021/07/21 09:55:02;;;;;;;7.63;6.47;;;;;;;;;;5094535;28;20032;-59
2021/07/21 09:57:28;;;;;;;9.45;7.22;;;;;;;;;;5094035;28;20458;-59
2021/07/21 09:59:57;;;;;;;7.43;6.18;;;;;;;;;;5093845;28;20047;-59
2021/07/21 10:02:25;;;;;;;8.13;6.18;;;;;;;;;;5094547;28;20445;-59
2021/07/21 10:04:51;;;;;;;8.30;6.65;;;;;;;;;;5094443;28;20509;-59
2021/07/21 10:10:12;;;;;;;8.32;6.10;;;;;;;;;;5093840;28;20036;-59
2021/07/21 10:12:38;;;;;;;7.20;5.70;;;;;;;;;;5093411;28;20083;-60
2021/07/21 10:15:04;;;;;;;8.52;6.70;;;;;;;;;;5093537;28;20418;-59
2021/07/21 10:17:30;;;;;;;9.82;6.88;;;;;;;;;;5093562;28;20028;-59
2021/07/21 10:19:57;;;;;;;9.57;7.63;;;;;;;;;;5093539;28;20055;-59
2021/07/21 10:22:23;;;;;;;11.48;7.75;;;;;;;;;;5093674;28;20020;-59
2021/07/21 10:24:49;;;;;;;9.43;6.85;;;;;;;;;;5093742;28;20028;-59
2021/07/21 10:27:18;;;;;;;9.07;6.53;;;;;;;;;;5093486;28;20103;-59
2021/07/21 10:29:44;;;;;;;8.85;7.00;;;;;;;;;;5093102;28;20386;-59
2021/07/21 10:32:11;;;;;;;8.93;6.40;;;;;;;;;;5093762;28;20020;-59
2021/07/21 10:34:37;;;;;;;8.52;6.88;;;;;;;;;;5093558;28;20119;-59
2021/07/21 10:37:03;;;;;;;8.88;6.38;;;;;;;;;;5093630;28;20020;-59
2021/07/21 10:39:34;;;;;;;8.10;6.20;;;;;;;;;;5093238;28;20470;-59
2021/07/21 10:42:00;;;;;;;;;;;;;;;;;;5094489;28;20448;-59
2021/07/21 10:44:26;;;;;;;8.82;5.68;;;;;;;;;;5093497;28;20012;-59
2021/07/21 10:46:53;;;;;;;7.30;6.57;;;;;;;;;;5093624;28;20055;-59
2021/07/21 10:54:59;;;;;;;11.98;7.25;;;;;;;;;;5093286;28;20089;-59
2021/07/21 11:00:19;;;;;;;8.85;7.05;;;;;;;;;;5093030;28;20027;-59
2021/07/21 11:02:45;;;;;;;7.45;6.53;;;;;;;;;;5094900;28;20020;-59
2021/07/21 11:05:31;;;;;;;13.07;6.03;;;;;;;;;;5096493;28;20107;-59
2021/07/21 11:07:58;;;;;;;10.30;6.70;;;;;;;;;;5097044;28;20115;-59
2021/07/21 11:10:44;;;;;;;8.40;6.82;;;;;;;;;;5096428;28;20025;-60
2021/07/21 11:13:12;;;;;;;7.63;6.85;;;;;;;;;;5096265;28;20038;-59
2021/07/21 11:15:42;;;;;;;7.90;6.40;;;;;;;;;;5096265;28;20020;-59
2021/07/21 11:18:41;;;;;;;8.48;7.13;;;;;;;;;;5096422;28;20059;-60
2021/07/21 11:21:07;;;;;;;9.82;7.05;;;;;;;;;;5094924;28;20063;-60
2021/07/21 11:23:43;;;;;;;9.13;7.63;;;;;;;;;;5096203;28;20032;-59
2021/07/21 11:26:28;;;;;;;9.10;6.95;;;;;;;;;;5096219;28;20051;-59
2021/07/21 11:28:54;;;;;;;7.10;6.32;;;;;;;;;;5096470;28;20358;-59
2021/07/21 11:31:41;;;;;;;8.45;7.47;;;;;;;;;;5096638;28;20027;-59
2021/07/21 11:34:12;;;;;;;9.60;7.45;;;;;;;;;;5096023;28;20059;-60
2021/07/21 11:36:46;;;;;;;10.25;7.15;;;;;;;;;;5096044;28;20033;-60
2021/07/21 11:39:30;;;;;;;8.23;7.10;;;;;;;;;;5096736;28;20028;-60
2021/07/21 11:41:57;;;;;;;8.32;6.85;;;;;;;;;;5096395;28;20067;-59
2021/07/21 11:44:27;;;;;;;8.55;6.90;;;;;;;;;;5095914;28;20513;-59
2021/07/21 11:46:53;;;;;;;;;;;;;;;;;;5096800;28;20355;-60
2021/07/21 11:49:23;;;;;;;8.43;6.93;;;;;;;;;;5095513;28;19930;-60
2021/07/21 11:51:50;;;;;;;8.88;7.13;;;;;;;;;;5095859;28;20031;-60
2021/07/21 11:54:20;;;;;;;9.00;7.55;;;;;;;;;;5095707;28;20119;-60
2021/07/21 11:56:47;;;;;;;9.30;7.82;;;;;;;;;;5095986;28;20024;-59
2021/07/21 11:59:13;;;;;;;10.63;7.40;;;;;;;;;;5095571;28;20446;-59
2021/07/21 12:01:39;;;;;;;10.40;8.23;;;;;;;;;;5096221;28;20059;-59
2021/07/21 12:04:05;;;;;;;9.27;7.00;;;;;;;;;;5095543;28;20058;-60
2021/07/21 12:06:31;;;;;;;8.30;7.40;;;;;;;;;;5095423;28;20024;-59
2021/07/21 12:08:57;;;;;;;11.50;7.68;;;;;;;;;;5095502;28;20024;-60
2021/07/21 12:11:24;;;;;;;7.43;6.45;;;;;;;;;;5095895;28;20040;-59
2021/07/21 12:14:03;;;;;;;10.20;7.72;;;;;;;;;;5094618;28;20028;-59
2021/07/21 12:16:30;;;;;;;10.40;7.53;;;;;;;;;;5095104;28;20351;-59
2021/07/21 12:19:00;;;;;;;11.05;7.82;;;;;;;;;;5095151;28;20024;-60
2021/07/21 12:21:30;;;;;;;10.43;7.30;;;;;;;;;;5095829;28;20028;-59
2021/07/21 12:23:58;;;;;;;7.78;6.65;;;;;;;;;;5095109;28;20036;-60
2021/07/21 12:26:24;;;;;;;9.60;6.25;;;;;;;;;;5095370;28;20031;-60
2021/07/21 12:28:56;;;;;;;13.98;7.72;;;;;;;;;;5095249;28;20103;-60
2021/07/21 12:31:29;;;;;;;9.65;7.00;;;;;;;;;;5095474;28;20050;-59
2021/07/21 12:34:09;;;;;;;9.00;6.68;;;;;;;;;;5095050;28;20119;-60
2021/07/21 12:36:35;;;;;;;8.75;6.97;;;;;;;;;;5095350;28;20445;-60
2021/07/21 12:39:02;;;;;;;8.38;7.20;;;;;;;;;;5095627;28;20062;-60
2021/07/21 12:41:28;;;;;;;9.73;7.05;;;;;;;;;;5095917;28;20024;-60
2021/07/21 12:43:54;;;;;;;8.02;7.32;;;;;;;;;;5094861;28;20031;-60
2021/07/21 12:46:20;;;;;;;9.52;8.35;;;;;;;;;;5095437;28;20020;-60
2021/07/21 12:48:47;;;;;;;9.07;6.57;;;;;;;;;;5094764;28;20381;-60
2021/07/21 12:51:13;;;;;;;8.27;6.78;;;;;;;;;;5094546;28;20095;-60
2021/07/21 12:53:42;;;;;;;9.88;7.63;;;;;;;;;;5094400;28;20039;-60
2021/07/21 12:56:08;;;;;;;9.32;7.82;;;;;;;;;;5094843;28;20024;-60
2021/07/21 12:58:34;;;;;;;8.25;7.05;;;;;;;;;;5094774;28;20047;-59
2021/07/21 13:01:00;;;;;;;10.00;6.68;;;;;;;;;;5094450;28;20027;-60
2021/07/21 13:03:27;;;;;;;8.82;7.28;;;;;;;;;;5094691;28;20453;-60
2021/07/21 13:05:56;;;;;;;9.05;7.00;;;;;;;;;;5094332;28;20028;-60
2021/07/21 13:08:28;;;;;;;8.90;7.22;;;;;;;;;;5094230;28;20066;-60
2021/07/21 13:11:07;;;;;;;7.95;7.13;;;;;;;;;;5093830;28;20051;-60
2021/07/21 13:13:34;;;;;;;9.40;6.93;;;;;;;;;;5094344;28;20086;-60
2021/07/21 13:16:01;;;;;;;9.80;7.03;;;;;;;;;;5094372;28;20021;-60
2021/07/21 13:18:34;;;;;;;9.85;8.32;;;;;;;;;;5094646;28;20065;-60
2021/07/21 13:21:00;;;;;;;8.50;7.43;;;;;;;;;;5093323;28;20491;-59
2021/07/21 13:23:27;;;;;;;9.20;6.95;;;;;;;;;;5094033;28;20122;-60
2021/07/21 13:26:04;;;;;;;8.38;6.68;;;;;;;;;;5093912;28;20028;-59
2021/07/21 13:28:32;;;;;;;11.00;7.22;;;;;;;;;;5093916;28;20027;-59
2021/07/21 13:30:59;;;;;;;8.57;6.80;;;;;;;;;;5093932;28;20024;-59
2021/07/21 13:33:29;;;;;;;8.43;6.75;;;;;;;;;;5094335;28;20113;-60
2021/07/21 13:36:12;;;;;;;9.07;6.55;;;;;;;;;;5094363;28;20414;-60
2021/07/21 13:38:38;;;;;;;8.27;6.47;;;;;;;;;;5094418;28;20020;-59
2021/07/21 13:41:06;;;;;;;9.60;7.05;;;;;;;;;;5093791;28;20016;-59
2021/07/21 13:43:33;;;;;;;8.63;6.43;;;;;;;;;;5093747;28;20035;-60
2021/07/21 13:46:19;;;;;;;11.02;7.07;;;;;;;;;;5094230;28;20038;-60
2021/07/21 13:48:54;;;;;;;8.25;6.68;;;;;;;;;;5093964;28;20024;-60
2021/07/21 13:51:20;;;;;;;10.35;6.68;;;;;;;;;;5092141;28;20058;-60
2021/07/21 13:53:46;;;;;;;8.27;6.15;;;;;;;;;;5092734;28;20075;-60
2021/07/21 13:56:12;;;;;;;9.88;6.13;;;;;;;;;;5094330;28;20020;-60
2021/07/21 13:58:38;;;;;;;9.57;6.57;;;;;;;;;;5093226;28;20016;-59
2021/07/21 14:01:05;;;;;;;11.02;7.03;;;;;;;;;;5093291;28;20099;-60
2021/07/21 14:03:31;;;;;;;10.10;7.00;;;;;;;;;;5093510;28;20038;-60
2021/07/21 14:05:57;;;;;;;9.25;7.35;;;;;;;;;;5093555;28;20065;-60
2021/07/21 14:08:23;;;;;;;7.43;6.15;;;;;;;;;;5093508;28;20020;-60
2021/07/21 14:10:49;;;;;;;10.18;7.00;;;;;;;;;;5093511;28;20046;-60
2021/07/21 14:13:15;;;;;;;8.68;5.82;;;;;;;;;;5093393;28;20031;-60
2021/07/21 14:15:41;;;;;;;9.75;6.43;;;;;;;;;;5093545;28;20438;-60
2021/07/21 14:18:07;;;;;;;9.02;7.57;;;;;;;;;;5092198;28;20116;-60
2021/07/21 14:20:33;;;;;;;9.35;6.63;;;;;;;;;;5093116;28;20056;-60
2021/07/21 14:22:59;;;;;;;12.13;7.40;;;;;;;;;;5094180;28;20020;-59
2021/07/21 14:25:25;;;;;;;8.27;6.45;;;;;;;;;;5093083;28;20369;-60
2021/07/21 14:27:51;;;;;;;11.63;7.20;;;;;;;;;;5093563;28;20020;-60
2021/07/21 14:30:17;;;;;;;6.93;6.03;;;;;;;;;;5093896;28;20021;-60
2021/07/21 14:32:43;;;;;;;8.20;6.18;;;;;;;;;;5093312;28;20016;-60
2021/07/21 14:35:09;;;;;;;9.38;6.35;;;;;;;;;;5093607;28;20358;-60
2021/07/21 14:37:35;;;;;;;7.75;6.18;;;;;;;;;;5095334;28;20020;-60
2021/07/21 14:40:01;;;;;;;7.28;6.50;;;;;;;;;;5097206;28;20507;-60
2021/07/21 14:42:27;;;;;;;7.30;5.68;;;;;;;;;;5097448;28;20446;-60
2021/07/21 14:44:53;;;;;;;8.70;6.30;;;;;;;;;;5097065;28;20028;-60
2021/07/21 14:47:23;;;;;;;9.07;6.85;;;;;;;;;;5097006;28;20024;-60
2021/07/21 14:49:50;;;;;;;7.32;6.45;;;;;;;;;;5097443;28;20020;-60
2021/07/21 14:52:16;;;;;;;8.07;6.07;;;;;;;;;;5097083;28;20020;-60
2021/07/21 14:54:42;;;;;;;8.18;6.93;;;;;;;;;;5097505;28;20028;-60
2021/07/21 14:57:09;;;;;;;7.45;5.57;;;;;;;;;;5097108;28;20028;-60
2021/07/21 14:59:35;;;;;;;8.68;7.32;;;;;;;;;;5096735;28;20373;-60